Terminal Aerodrome Forecast
Issued by NWS Upton, NY

Home | Current Version | Previous Version | Text Only | Print | Product List | Glossary On
Versions: 1 2 3 4 5 6 7 8 9 10 11 12 13 14 15 16 17 18 19 20 21 22 23 24 25 26 27 28 29 30 31
000
FTUS41 KOKX 020537
TAFJFK
TAF
KJFK 020537Z 0206/0312 04010KT P6SM -RA OVC009
      TEMPO 0206/0209 2SM RA BR BKN004 OVC009
     FM021000 03011KT 3SM -RA BR OVC004
     FM021500 03012KT 6SM -RA BR OVC010
      TEMPO 0215/0218 2SM RA BR OVC008
     FM022100 05010KT 6SM -DZ BR OVC008
     FM030100 04010KT P6SM OVC012=

USA.gov is the U.S. government's official web portal to all federal, state and local government web resources and services.